Fithian, IL (61844)

8:36 PM CST on March 04, 2015 (GMT -0600)
K9ADL | Change Station
CLOSE
Current Station
Personal Weather Station
Location: Oakwood, IL
Elevation: 725 ft
Nearby Weather Stations

Elev 725 ft 40.17 °N, 87.77 °W | Updated 9 seconds ago

Partly Cloudy
Partly Cloudy
16.3 °F
Feels Like 16 °F
N
0.0
Wind Variable Wind from NW
Gusts 0.0 mph

Today
High -- | Low -- °F
--% Chance of Precip.
Yesterday
High -- | Low -- °F
Precip. -- in
6:20 AM 5:45 PM
Full, 100% visible
Pressure 30.25 in
Visibility 10.0 miles
Clouds Clear
Windchill 16 °F
Dew Point 6 °F
Humidity 62%
Rainfall 0.17 in
Snow Depth Not available.
UV 0 out of 12
Pollen .50 out of 12
Air Quality Not available.
Flu Activity Not available.
METAR KDNV 050155Z AUTO 31013KT 10SM CLR M09/M13 A3025 RMK AO2 T10861134

More Conditions Fewer Conditions

Pressure 30.25 in
Visibility 10.0 miles
Clouds Clear
Windchill 16 °F
Dew Point 6 °F
Humidity 62%
Rainfall 0.17 in
Snow Depth Not available.
UV 0 out of 12
Pollen .50 out of 12
Air Quality Not available.
Flu Activity Not available.
METAR KDNV 050155Z AUTO 31013KT 10SM CLR M09/M13 A3025 RMK AO2 T10861134

More Conditions Fewer Conditions

10-Day Weather Forecast

Almanac

Astronomy

Mar. 04, 2015 Rise Set
Actual Time
Civil Twilight
Nautical Twilight
Astronomical Twilight
Moon
Length of Visible Light
Length of Day
Tomorrow will be .
, % of the Moon is Illuminated

Today's Extremes

State Highs State Lows

Community

WunderPhotos

Upload Photos

1,802,631 photos uploaded!

WunderBlogs® & News

Nearby

Air Quality

  Air Quality AQ Index Pollutant
Not available.

Snow Depth

Station Depth Elevation

Earthquake Activity

City Distance Mag. Time & Date
Minimum magnitude displayed is 2.5.

Coastal Water Temperatures

Place Temperature

Nearby Weather Stations